Terminal Aerodrome Forecast
Issued by NWS Quad Cities IA IL

Home | Current Version | Previous Version | Text Only | Print | Product List | Glossary On
Versions: 1 2 3 4 5 6 7 8 9 10 11 12 13 14 15 16 17 18
889
FTUS43 KDVN 120528
TAFDBQ
TAF
KDBQ 120528Z 1206/1306 00000KT P6SM BKN060
     FM121000 29006KT 6SM -SN BKN025
     FM121500 33013KT P6SM BKN050
     FM121800 32018G26KT P6SM BKN050
     FM130300 33014KT P6SM SCT200=

USA.gov is the U.S. government's official web portal to all federal, state and local government web resources and services.